Time;durP1;ratioP1;P1;durP2;ratioP2;P2;SDS_P1;SDS_P2;PMS_P1;PMS_P2;Temp;Humidity;BMP_temperature;BMP_pressure;BME280_temperature;BME280_humidity;BME280_pressure;Samples;Min_cycle;Max_cycle;Signal;HPM_P1;HPM_P2
2023/01/03 00:01:42;;;;;;;4.22;1.10;;;;;;;;;;5031426;28;20053;-80
2023/01/03 00:04:08;;;;;;;9.00;2.20;;;;;;;;;;5039848;28;20114;-80
2023/01/03 00:06:36;;;;;;;5.65;1.35;;;;;;;;;;5038954;28;20457;-80
2023/01/03 00:09:04;;;;;;;4.55;1.17;;;;;;;;;;5020347;28;20029;-80
2023/01/03 00:14:18;;;;;;;4.97;1.50;;;;;;;;;;5036978;28;20093;-80
2023/01/03 00:16:45;;;;;;;6.55;1.42;;;;;;;;;;5030918;28;20080;-80
2023/01/03 00:19:12;;;;;;;4.68;1.60;;;;;;;;;;5016048;28;20041;-80
2023/01/03 00:21:38;;;;;;;9.15;1.45;;;;;;;;;;5018354;28;20034;-80
2023/01/03 00:24:04;;;;;;;4.93;1.20;;;;;;;;;;5025703;28;20072;-80
2023/01/03 00:26:31;;;;;;;4.18;1.60;;;;;;;;;;5037390;28;20056;-80
2023/01/03 00:28:57;;;;;;;7.25;1.70;;;;;;;;;;5018502;28;20025;-80
2023/01/03 00:31:23;;;;;;;4.80;1.45;;;;;;;;;;5036360;28;20159;-80
2023/01/03 00:33:49;;;;;;;4.72;1.13;;;;;;;;;;5036597;28;20097;-80
2023/01/03 00:36:15;;;;;;;3.88;1.23;;;;;;;;;;5036456;28;20021;-80
2023/01/03 00:38:41;;;;;;;3.30;0.90;;;;;;;;;;5036433;28;20072;-80
2023/01/03 00:41:15;;;;;;;4.20;1.50;;;;;;;;;;5035540;28;20033;-80
2023/01/03 00:43:42;;;;;;;8.55;1.33;;;;;;;;;;5016384;28;20036;-80
2023/01/03 00:46:09;;;;;;;5.15;1.63;;;;;;;;;;5015989;28;20030;-80
2023/01/03 00:48:35;;;;;;;7.07;1.13;;;;;;;;;;5016008;28;20081;-80
2023/01/03 00:51:08;;;;;;;5.70;1.35;;;;;;;;;;5014185;28;20037;-80
2023/01/03 00:53:35;;;;;;;4.43;0.93;;;;;;;;;;5015370;28;20093;-80
2023/01/03 00:56:05;;;;;;;2.78;1.00;;;;;;;;;;5021256;28;20021;-80
2023/01/03 00:58:31;;;;;;;5.95;1.08;;;;;;;;;;5038601;28;20033;-80
2023/01/03 01:01:03;;;;;;;2.50;1.17;;;;;;;;;;5038350;28;20077;-80
2023/01/03 01:03:29;;;;;;;5.28;1.23;;;;;;;;;;5020864;28;20026;-80
2023/01/03 01:05:55;;;;;;;5.53;1.40;;;;;;;;;;5022723;28;20105;-80
2023/01/03 01:08:21;;;;;;;6.05;1.33;;;;;;;;;;5039042;28;20048;-80
2023/01/03 01:11:00;;;;;;;6.82;1.60;;;;;;;;;;5040712;28;20052;-79
2023/01/03 01:13:27;;;;;;;2.45;0.93;;;;;;;;;;5052480;28;20025;-80
2023/01/03 01:15:54;;;;;;;2.80;0.98;;;;;;;;;;5031017;28;20083;-80
2023/01/03 01:18:20;;;;;;;2.28;1.30;;;;;;;;;;5019483;28;20026;-80
2023/01/03 01:20:46;;;;;;;2.50;1.10;;;;;;;;;;5049642;28;20034;-80
2023/01/03 01:23:12;;;;;;;5.38;1.10;;;;;;;;;;5031692;28;20033;-80
2023/01/03 01:25:37;;;;;;;1.55;0.90;;;;;;;;;;5048617;28;20030;-80
2023/01/03 01:28:03;;;;;;;2.83;1.20;;;;;;;;;;5026132;28;20488;-80
2023/01/03 01:30:29;;;;;;;5.35;0.90;;;;;;;;;;5036313;28;20037;-80
2023/01/03 01:32:57;;;;;;;4.03;0.75;;;;;;;;;;5028858;28;20116;-80
2023/01/03 01:35:23;;;;;;;4.00;0.80;;;;;;;;;;5034155;28;20022;-80
2023/01/03 01:37:49;;;;;;;4.78;0.70;;;;;;;;;;5044443;28;20036;-80
2023/01/03 01:40:15;;;;;;;4.20;0.75;;;;;;;;;;5025229;28;20030;-80
2023/01/03 01:45:26;;;;;;;1.70;0.60;;;;;;;;;;5036805;28;20037;-80
2023/01/03 01:47:54;;;;;;;2.15;0.50;;;;;;;;;;5041663;28;20030;-80
2023/01/03 01:50:29;;;;;;;3.08;0.70;;;;;;;;;;5042071;28;20036;-80
2023/01/03 01:52:57;;;;;;;1.30;0.63;;;;;;;;;;5041473;28;20489;-80
2023/01/03 01:55:26;;;;;;;2.97;0.70;;;;;;;;;;5040838;28;20471;-80
2023/01/03 01:57:53;;;;;;;2.42;0.60;;;;;;;;;;5032637;28;20084;-80
2023/01/03 02:00:20;;;;;;;3.70;0.65;;;;;;;;;;5033879;28;20046;-80
2023/01/03 02:02:47;;;;;;;3.50;0.63;;;;;;;;;;5029453;28;20057;-80
2023/01/03 02:05:13;;;;;;;5.13;0.65;;;;;;;;;;5039345;28;20022;-80
2023/01/03 02:07:39;;;;;;;5.80;0.70;;;;;;;;;;5020372;28;20026;-80
2023/01/03 02:10:06;;;;;;;2.83;0.60;;;;;;;;;;5037673;28;20038;-80
2023/01/03 02:15:44;;;;;;;2.83;0.82;;;;;;;;;;5038874;28;20052;-80
2023/01/03 02:18:22;;;;;;;6.43;1.50;;;;;;;;;;5026469;28;20033;-80
2023/01/03 02:20:57;;;;;;;6.38;1.02;;;;;;;;;;5026580;28;20517;-79
2023/01/03 02:23:23;;;;;;;4.63;1.10;;;;;;;;;;5019695;28;20125;-79
2023/01/03 02:26:07;;;;;;;2.78;0.70;;;;;;;;;;5037493;28;20049;-79
2023/01/03 02:28:36;;;;;;;7.75;1.75;;;;;;;;;;5037854;28;20032;-80
2023/01/03 02:31:12;;;;;;;1.92;0.80;;;;;;;;;;5037171;28;20033;-80
2023/01/03 02:33:49;;;;;;;4.80;1.02;;;;;;;;;;5037116;28;20056;-80
2023/01/03 02:36:22;;;;;;;3.40;0.93;;;;;;;;;;5036956;28;20052;-80
2023/01/03 02:39:00;;;;;;;5.85;0.85;;;;;;;;;;5037231;28;20039;-79
2023/01/03 02:41:29;;;;;;;5.97;0.80;;;;;;;;;;5036868;28;20029;-79
2023/01/03 02:44:02;;;;;;;1.67;0.90;;;;;;;;;;5037610;28;20026;-79
2023/01/03 02:46:55;;;;;;;5.03;0.90;;;;;;;;;;5037138;28;20432;-79
2023/01/03 02:49:29;;;;;;;1.50;0.73;;;;;;;;;;5014069;28;20038;-79
2023/01/03 02:51:59;;;;;;;1.13;0.77;;;;;;;;;;5020205;28;20034;-79
2023/01/03 02:54:27;;;;;;;4.32;0.75;;;;;;;;;;5029807;28;20487;-79
2023/01/03 02:56:57;;;;;;;2.05;0.80;;;;;;;;;;5019757;28;20030;-79
2023/01/03 02:59:23;;;;;;;;;;;;;;;;;;5033745;28;20030;-79
2023/01/03 03:01:51;;;;;;;4.20;0.70;;;;;;;;;;5031342;28;19939;-79
2023/01/03 03:04:18;;;;;;;5.60;0.90;;;;;;;;;;5043773;28;20025;-79
2023/01/03 03:06:47;;;;;;;5.72;1.00;;;;;;;;;;5029531;28;20077;-79
2023/01/03 03:09:13;;;;;;;4.03;1.10;;;;;;;;;;5032630;28;20403;-79
2023/01/03 03:14:36;;;;;;;6.38;1.35;;;;;;;;;;5020055;28;20515;-79
2023/01/03 03:17:04;;;;;;;2.70;1.02;;;;;;;;;;5019571;28;20049;-79
2023/01/03 03:25:25;;;;;;;5.18;1.60;;;;;;;;;;5038281;28;20511;-79
2023/01/03 03:30:39;;;;;;;2.38;1.45;;;;;;;;;;5020749;28;20033;-79
2023/01/03 03:33:05;;;;;;;6.55;1.90;;;;;;;;;;5019339;28;20044;-79
2023/01/03 03:35:50;;;;;;;5.18;1.75;;;;;;;;;;5038789;28;20022;-78
2023/01/03 03:38:20;;;;;;;4.63;2.00;;;;;;;;;;5037126;28;20025;-79
2023/01/03 03:46:30;;;;;;;7.90;1.95;;;;;;;;;;5036425;28;20036;-79
2023/01/03 03:51:46;;;;;;;4.88;1.90;;;;;;;;;;5028520;28;20071;-78
2023/01/03 03:54:14;;;;;;;3.55;2.08;;;;;;;;;;5035751;28;20038;-79
2023/01/03 03:56:40;;;;;;;8.80;2.20;;;;;;;;;;5035280;28;20417;-79
2023/01/03 03:59:07;;;;;;;4.63;1.90;;;;;;;;;;5035345;28;20464;-78
2023/01/03 04:01:35;;;;;;;4.63;2.10;;;;;;;;;;5035333;28;20057;-78
2023/01/03 04:04:03;;;;;;;4.47;2.15;;;;;;;;;;5035878;28;20419;-79
2023/01/03 04:06:34;;;;;;;3.20;2.10;;;;;;;;;;5035965;28;20388;-79
2023/01/03 04:09:01;;;;;;;5.57;2.42;;;;;;;;;;5035315;28;20465;-79
2023/01/03 04:11:27;;;;;;;5.65;2.30;;;;;;;;;;5035483;28;20026;-78
2023/01/03 04:13:53;;;;;;;5.93;2.90;;;;;;;;;;5017324;28;20091;-79
2023/01/03 04:16:19;;;;;;;10.32;2.92;;;;;;;;;;5035112;28;20029;-79
2023/01/03 04:18:45;;;;;;;5.38;2.63;;;;;;;;;;5034840;28;20025;-79
2023/01/03 04:21:11;;;;;;;8.63;2.85;;;;;;;;;;5035210;28;20033;-79
2023/01/03 04:23:37;;;;;;;12.15;3.45;;;;;;;;;;5034741;28;20465;-79
2023/01/03 04:26:03;;;;;;;5.18;3.17;;;;;;;;;;5035129;28;20042;-79
2023/01/03 04:28:29;;;;;;;6.65;3.45;;;;;;;;;;5014462;28;20029;-79
2023/01/03 04:30:55;;;;;;;6.70;3.47;;;;;;;;;;5015816;28;20085;-79
2023/01/03 04:33:21;;;;;;;7.75;3.78;;;;;;;;;;5026495;28;20057;-79
2023/01/03 04:35:47;;;;;;;10.30;3.95;;;;;;;;;;5021487;28;20026;-79
2023/01/03 04:38:13;;;;;;;8.95;4.68;;;;;;;;;;5039556;28;20029;-79
2023/01/03 04:40:39;;;;;;;6.53;3.70;;;;;;;;;;5038913;28;20029;-79
2023/01/03 04:45:50;;;;;;;8.00;3.35;;;;;;;;;;5040068;28;20040;-79
2023/01/03 04:48:16;;;;;;;6.57;3.20;;;;;;;;;;5020743;28;20033;-79
2023/01/03 04:50:51;;;;;;;8.35;3.22;;;;;;;;;;5024477;28;20041;-79
2023/01/03 04:53:17;;;;;;;10.30;3.40;;;;;;;;;;5043976;28;20041;-79
2023/01/03 04:55:46;;;;;;;6.85;3.00;;;;;;;;;;5022229;28;20038;-79
2023/01/03 04:58:12;;;;;;;8.23;3.70;;;;;;;;;;5021985;28;20036;-79
2023/01/03 05:00:38;;;;;;;6.30;2.72;;;;;;;;;;5022281;28;20045;-79
2023/01/03 05:03:04;;;;;;;6.68;3.33;;;;;;;;;;5041223;28;20068;-79
2023/01/03 05:05:32;;;;;;;6.88;3.00;;;;;;;;;;5043705;28;20068;-79
2023/01/03 05:07:58;;;;;;;8.50;4.55;;;;;;;;;;5042422;28;20482;-79
2023/01/03 05:10:24;;;;;;;8.25;3.47;;;;;;;;;;5033913;28;20064;-79
2023/01/03 05:12:59;;;;;;;7.70;3.83;;;;;;;;;;5034963;28;20050;-79
2023/01/03 05:15:28;;;;;;;10.10;4.25;;;;;;;;;;5024528;28;20029;-79
2023/01/03 05:17:54;;;;;;;14.90;4.30;;;;;;;;;;5023283;28;20018;-79
2023/01/03 05:25:51;;;;;;;8.25;3.15;;;;;;;;;;5041016;28;20029;-79
2023/01/03 05:28:21;;;;;;;4.03;2.40;;;;;;;;;;5041652;28;20021;-79
2023/01/03 05:30:47;;;;;;;5.97;2.97;;;;;;;;;;5033113;28;20029;-79
2023/01/03 05:33:13;;;;;;;8.20;2.50;;;;;;;;;;5041410;28;20112;-79
2023/01/03 05:35:51;;;;;;;6.07;2.50;;;;;;;;;;5040834;28;20389;-79
2023/01/03 05:38:17;;;;;;;8.80;2.90;;;;;;;;;;5040357;28;20028;-79
2023/01/03 05:40:43;;;;;;;5.35;2.40;;;;;;;;;;5021471;28;20036;-79
2023/01/03 05:43:09;;;;;;;3.55;2.33;;;;;;;;;;5038225;28;20038;-79
2023/01/03 05:45:36;;;;;;;7.35;2.58;;;;;;;;;;5038914;28;20081;-79
2023/01/03 05:48:02;;;;;;;5.40;2.35;;;;;;;;;;5039449;28;20051;-79
2023/01/03 05:50:29;;;;;;;4.95;2.22;;;;;;;;;;5038768;28;20112;-79
2023/01/03 05:52:55;;;;;;;7.30;2.45;;;;;;;;;;5038647;28;20033;-79
2023/01/03 05:55:22;;;;;;;5.93;2.75;;;;;;;;;;5037946;28;20539;-79
2023/01/03 05:57:48;;;;;;;4.10;2.83;;;;;;;;;;5029896;28;20032;-78
2023/01/03 06:00:14;;;;;;;3.85;2.30;;;;;;;;;;5021275;28;20030;-79
2023/01/03 06:02:40;;;;;;;6.25;2.40;;;;;;;;;;5038297;28;20029;-79
2023/01/03 06:05:06;;;;;;;6.00;2.40;;;;;;;;;;5020101;28;20099;-78
2023/01/03 06:07:33;;;;;;;6.95;2.90;;;;;;;;;;5037467;28;20531;-79
2023/01/03 06:10:02;;;;;;;4.45;2.50;;;;;;;;;;5036862;28;20388;-79
2023/01/03 06:12:28;;;;;;;6.28;2.65;;;;;;;;;;5037433;28;20025;-79
2023/01/03 06:14:54;;;;;;;5.18;2.78;;;;;;;;;;5037761;28;20108;-79
2023/01/03 06:20:05;;;;;;;6.63;3.95;;;;;;;;;;5037412;28;20087;-79
2023/01/03 06:22:31;;;;;;;9.98;4.68;;;;;;;;;;5037197;28;20030;-79
2023/01/03 06:24:57;;;;;;;12.07;5.57;;;;;;;;;;5036363;28;20031;-78
2023/01/03 06:27:23;;;;;;;16.92;6.32;;;;;;;;;;5036697;28;20029;-79
2023/01/03 06:29:49;;;;;;;15.00;6.75;;;;;;;;;;5032263;28;20489;-79
2023/01/03 06:32:15;;;;;;;16.35;7.10;;;;;;;;;;5034565;28;20030;-79
2023/01/03 06:34:42;;;;;;;17.27;7.35;;;;;;;;;;5037255;28;20025;-79
2023/01/03 06:37:08;;;;;;;17.80;7.40;;;;;;;;;;5036896;28;20029;-79
2023/01/03 06:39:34;;;;;;;16.00;7.95;;;;;;;;;;5040227;28;20064;-79
2023/01/03 06:42:38;;;;;;;15.40;6.72;;;;;;;;;;5038308;28;20468;-78
2023/01/03 06:53:10;;;;;;;20.05;8.15;;;;;;;;;;5036297;28;20029;-78
2023/01/03 06:53:13;;;;;;;22.63;8.48;;;;;;;;;;5021410;28;20036;-79
2023/01/03 06:55:40;;;;;;;23.63;10.27;;;;;;;;;;5039042;28;20079;-79
2023/01/03 06:58:06;;;;;;;25.77;10.90;;;;;;;;;;5038983;28;20028;-79
2023/01/03 07:00:32;;;;;;;21.00;10.15;;;;;;;;;;5039412;28;20054;-79
2023/01/03 07:02:58;;;;;;;19.35;9.77;;;;;;;;;;5034180;28;20032;-79
2023/01/03 07:05:24;;;;;;;25.40;9.57;;;;;;;;;;5037398;28;20376;-79
2023/01/03 07:07:50;;;;;;;23.75;9.85;;;;;;;;;;5019722;28;20033;-79
2023/01/03 07:10:16;;;;;;;21.42;10.63;;;;;;;;;;5035452;28;20029;-79
2023/01/03 07:15:27;;;;;;;23.83;10.23;;;;;;;;;;5035172;28;20032;-79
2023/01/03 07:17:54;;;;;;;24.85;10.25;;;;;;;;;;5037236;28;20112;-79
2023/01/03 07:20:20;;;;;;;22.27;10.55;;;;;;;;;;5036846;28;20052;-79
2023/01/03 07:22:46;;;;;;;25.20;10.45;;;;;;;;;;5034911;28;20539;-79
2023/01/03 07:25:12;;;;;;;21.27;10.20;;;;;;;;;;5034907;28;20096;-79
2023/01/03 07:27:38;;;;;;;25.40;10.88;;;;;;;;;;5030411;28;20030;-79
2023/01/03 07:30:04;;;;;;;22.52;10.80;;;;;;;;;;5015245;28;20112;-79
2023/01/03 07:32:30;;;;;;;26.02;10.65;;;;;;;;;;5027596;28;20029;-79
2023/01/03 07:34:56;;;;;;;24.58;10.65;;;;;;;;;;5038328;28;20030;-78
2023/01/03 07:37:22;;;;;;;34.47;10.82;;;;;;;;;;5035788;28;20047;-79
2023/01/03 07:39:48;;;;;;;21.52;10.50;;;;;;;;;;5030321;28;20403;-79
2023/01/03 07:44:59;;;;;;;26.48;10.93;;;;;;;;;;5034551;28;20095;-79
2023/01/03 07:47:25;;;;;;;24.58;11.10;;;;;;;;;;5034118;28;20022;-79
2023/01/03 07:49:51;;;;;;;25.60;11.40;;;;;;;;;;5035933;28;20473;-79
2023/01/03 07:52:17;;;;;;;30.77;12.05;;;;;;;;;;5035311;28;20030;-79
2023/01/03 07:54:43;;;;;;;21.90;10.82;;;;;;;;;;5035796;28;20113;-79
2023/01/03 07:57:09;;;;;;;22.25;10.55;;;;;;;;;;5037024;28;20061;-78
2023/01/03 07:59:35;;;;;;;25.10;11.57;;;;;;;;;;5035470;28;20072;-78
2023/01/03 08:02:01;;;;;;;26.23;11.93;;;;;;;;;;5033478;28;20381;-78
2023/01/03 08:04:27;;;;;;;28.20;12.10;;;;;;;;;;5034700;28;20026;-78
2023/01/03 08:06:53;;;;;;;30.88;12.68;;;;;;;;;;5038393;28;20033;-78
2023/01/03 08:14:48;;;;;;;26.98;12.77;;;;;;;;;;5030252;28;20072;-78
2023/01/03 08:17:14;;;;;;;28.95;12.77;;;;;;;;;;5035012;28;20692;-79
2023/01/03 08:19:40;;;;;;;28.17;12.57;;;;;;;;;;5028849;28;20112;-79
2023/01/03 08:22:06;;;;;;;28.45;13.80;;;;;;;;;;5027964;28;20033;-78
2023/01/03 08:24:32;;;;;;;32.88;14.68;;;;;;;;;;5025494;28;20085;-79
2023/01/03 08:26:58;;;;;;;41.13;15.73;;;;;;;;;;5034497;28;20048;-79
2023/01/03 08:29:24;;;;;;;49.35;16.25;;;;;;;;;;5034442;28;20022;-79
2023/01/03 08:31:53;;;;;;;55.92;15.88;;;;;;;;;;5039809;28;20064;-79
2023/01/03 08:34:19;;;;;;;35.63;16.25;;;;;;;;;;5047269;28;20026;-79
2023/01/03 08:36:48;;;;;;;42.67;15.80;;;;;;;;;;5044928;28;20487;-79
2023/01/03 08:39:17;;;;;;;74.57;19.08;;;;;;;;;;5043408;28;20026;-79
2023/01/03 08:41:45;;;;;;;53.20;15.80;;;;;;;;;;5012366;28;20034;-79
2023/01/03 08:44:11;;;;;;;37.97;13.95;;;;;;;;;;5009420;28;20017;-79
2023/01/03 08:46:42;;;;;;;50.78;12.30;;;;;;;;;;5028022;28;20087;-79
2023/01/03 08:49:09;;;;;;;35.90;13.63;;;;;;;;;;5006183;28;20486;-78
2023/01/03 08:51:35;;;;;;;38.65;12.35;;;;;;;;;;5024168;28;20025;-78
2023/01/03 08:54:01;;;;;;;55.35;13.43;;;;;;;;;;5023946;28;20040;-78
2023/01/03 08:56:27;;;;;;;42.70;13.45;;;;;;;;;;5024081;28;20029;-78
2023/01/03 08:58:56;;;;;;;44.95;12.70;;;;;;;;;;5023877;28;20025;-78
2023/01/03 09:01:22;;;;;;;50.45;14.35;;;;;;;;;;5026478;28;20046;-79
2023/01/03 09:03:48;;;;;;;44.10;12.85;;;;;;;;;;5033107;28;20040;-78
2023/01/03 09:06:14;;;;;;;38.53;12.75;;;;;;;;;;5031690;28;20108;-78
2023/01/03 09:08:40;;;;;;;42.58;12.93;;;;;;;;;;5034405;28;20032;-78
2023/01/03 09:11:07;;;;;;;41.17;12.95;;;;;;;;;;5036024;28;20388;-79
2023/01/03 09:13:33;;;;;;;41.65;13.70;;;;;;;;;;5035119;28;20420;-79
2023/01/03 09:16:04;;;;;;;46.60;15.18;;;;;;;;;;5032621;28;20472;-79
2023/01/03 09:18:30;;;;;;;59.97;16.00;;;;;;;;;;5027306;28;20025;-79
2023/01/03 09:20:56;;;;;;;97.32;18.70;;;;;;;;;;5036089;28;20026;-79
2023/01/03 09:23:22;;;;;;;49.33;16.65;;;;;;;;;;5030223;28;20076;-79
2023/01/03 09:25:48;;;;;;;80.18;17.92;;;;;;;;;;5030559;28;20022;-79
2023/01/03 09:28:14;;;;;;;62.85;20.05;;;;;;;;;;5033654;28;20378;-79
2023/01/03 09:30:40;;;;;;;67.38;19.75;;;;;;;;;;5040126;28;20085;-79
2023/01/03 09:33:09;;;;;;;82.10;18.60;;;;;;;;;;5039548;28;20083;-79
2023/01/03 09:35:35;;;;;;;59.25;17.27;;;;;;;;;;5041779;28;20022;-79
2023/01/03 09:38:01;;;;;;;75.90;18.38;;;;;;;;;;5040692;28;20025;-79
2023/01/03 09:40:29;;;;;;;62.05;18.23;;;;;;;;;;5033455;28;20389;-80
2023/01/03 09:43:13;;;;;;;70.78;19.20;;;;;;;;;;5013824;28;20029;-80
2023/01/03 09:45:42;;;;;;;72.82;20.92;;;;;;;;;;5018128;28;20037;-80
2023/01/03 09:48:09;;;;;;;87.55;21.55;;;;;;;;;;5029325;28;20092;-80
2023/01/03 09:50:37;;;;;;;63.15;20.27;;;;;;;;;;5040397;28;20030;-80
2023/01/03 10:04:36;;;;;;;69.70;20.88;;;;;;;;;;5045500;28;20056;-79
2023/01/03 10:07:08;;;;;;;69.43;20.83;;;;;;;;;;5045155;28;20029;-79
2023/01/03 10:09:43;;;;;;;60.70;19.63;;;;;;;;;;5046325;28;20044;-80
2023/01/03 10:12:17;;;;;;;63.65;20.33;;;;;;;;;;5029042;28;20040;-78
2023/01/03 10:14:56;;;;;;;66.25;22.02;;;;;;;;;;5042381;28;20025;-79
2023/01/03 10:17:34;;;;;;;62.58;20.50;;;;;;;;;;5038743;28;20025;-79
2023/01/03 10:20:19;;;;;;;47.90;17.92;;;;;;;;;;5042188;28;20079;-79
2023/01/03 10:22:46;;;;;;;57.70;21.50;;;;;;;;;;5039654;28;20469;-79
2023/01/03 10:25:17;;;;;;;67.03;23.50;;;;;;;;;;5046061;28;20025;-79
2023/01/03 10:27:47;;;;;;;64.65;21.58;;;;;;;;;;5039256;28;20048;-79
2023/01/03 10:30:18;;;;;;;64.30;23.08;;;;;;;;;;5029803;28;20265;-80
2023/01/03 10:32:48;;;;;;;63.38;22.58;;;;;;;;;;5036297;28;20045;-79
2023/01/03 10:35:14;;;;;;;59.95;21.33;;;;;;;;;;5026698;28;20034;-79
2023/01/03 10:37:40;;;;;;;61.17;23.42;;;;;;;;;;5010464;28;20030;-79
2023/01/03 10:40:06;;;;;;;62.55;23.60;;;;;;;;;;5045837;28;20060;-79
2023/01/03 10:42:34;;;;;;;60.53;23.63;;;;;;;;;;5043678;28;20108;-79
2023/01/03 10:45:01;;;;;;;63.47;24.35;;;;;;;;;;5028006;28;20033;-79
2023/01/03 10:47:27;;;;;;;65.88;24.67;;;;;;;;;;5043432;28;20025;-79
2023/01/03 10:50:03;;;;;;;65.20;24.05;;;;;;;;;;5043196;28;20030;-79
2023/01/03 10:52:34;;;;;;;70.22;24.42;;;;;;;;;;5043177;28;20037;-79
2023/01/03 10:55:01;;;;;;;59.03;23.10;;;;;;;;;;5041360;28;20029;-79
2023/01/03 10:57:45;;;;;;;65.65;23.55;;;;;;;;;;5040607;28;20026;-79
2023/01/03 11:00:21;;;;;;;63.92;22.83;;;;;;;;;;5047713;28;20026;-79
2023/01/03 11:02:47;;;;;;;59.80;22.25;;;;;;;;;;5043976;28;20112;-79
2023/01/03 11:05:21;;;;;;;63.03;21.95;;;;;;;;;;5043081;28;20022;-79
2023/01/03 11:07:58;;;;;;;68.32;24.48;;;;;;;;;;5042507;28;20037;-79
2023/01/03 11:10:25;;;;;;;69.50;23.58;;;;;;;;;;5037356;28;20116;-79
2023/01/03 11:12:51;;;;;;;61.08;22.05;;;;;;;;;;5042660;28;20029;-80
2023/01/03 11:15:17;;;;;;;65.75;23.48;;;;;;;;;;5040755;28;20032;-78
2023/01/03 11:17:56;;;;;;;62.10;22.83;;;;;;;;;;5037985;28;20041;-79
2023/01/03 11:20:29;;;;;;;53.83;20.75;;;;;;;;;;5035220;28;20030;-79
2023/01/03 11:23:01;;;;;;;54.08;21.13;;;;;;;;;;5021125;28;20079;-79
2023/01/03 11:25:33;;;;;;;57.33;21.73;;;;;;;;;;5036692;28;20033;-79
2023/01/03 11:28:09;;;;;;;62.17;23.25;;;;;;;;;;5030891;28;20362;-79
2023/01/03 11:30:47;;;;;;;50.83;19.15;;;;;;;;;;5038357;28;20029;-80
2023/01/03 11:33:32;;;;;;;49.30;19.92;;;;;;;;;;5010895;28;20088;-80
2023/01/03 11:36:01;;;;;;;44.50;19.10;;;;;;;;;;5026633;28;20022;-79
2023/01/03 11:38:37;;;;;;;47.85;19.80;;;;;;;;;;5042270;28;20025;-79
2023/01/03 11:41:03;;;;;;;48.42;20.23;;;;;;;;;;5033172;28;20571;-79
2023/01/03 11:43:32;;;;;;;45.03;19.88;;;;;;;;;;5033403;28;20056;-79
2023/01/03 11:46:10;;;;;;;44.70;19.02;;;;;;;;;;5036831;28;20017;-79
2023/01/03 11:48:46;;;;;;;47.20;20.27;;;;;;;;;;5038811;28;20495;-79
2023/01/03 11:51:27;;;;;;;46.92;20.88;;;;;;;;;;5038189;28;20064;-78
2023/01/03 11:53:59;;;;;;;38.70;18.20;;;;;;;;;;5018671;28;20025;-78
2023/01/03 11:56:30;;;;;;;44.95;20.42;;;;;;;;;;5033171;28;20022;-79
2023/01/03 11:59:11;;;;;;;42.35;19.77;;;;;;;;;;5028144;28;20500;-78
2023/01/03 12:01:45;;;;;;;41.70;18.63;;;;;;;;;;5037459;28;20429;-79
2023/01/03 12:04:30;;;;;;;46.13;20.60;;;;;;;;;;5036217;28;20595;-78
2023/01/03 12:07:05;;;;;;;44.55;19.98;;;;;;;;;;5031452;28;20033;-78
2023/01/03 12:09:34;;;;;;;43.85;20.75;;;;;;;;;;5034602;28;20025;-78
2023/01/03 12:12:18;;;;;;;41.30;19.58;;;;;;;;;;5035730;28;20030;-78
2023/01/03 12:14:47;;;;;;;43.78;20.88;;;;;;;;;;5038296;28;20026;-78
2023/01/03 12:17:21;;;;;;;41.78;19.85;;;;;;;;;;5039900;28;20056;-78
2023/01/03 12:19:53;;;;;;;42.97;20.70;;;;;;;;;;5034467;28;20056;-78
2023/01/03 12:22:19;;;;;;;48.05;21.00;;;;;;;;;;5039845;28;20040;-78
2023/01/03 12:24:54;;;;;;;45.78;19.40;;;;;;;;;;5027168;28;20030;-78
2023/01/03 12:27:40;;;;;;;41.47;21.55;;;;;;;;;;5009744;28;20030;-78
2023/01/03 12:30:12;;;;;;;44.67;20.27;;;;;;;;;;5027564;28;20033;-78
2023/01/03 12:32:49;;;;;;;42.45;19.55;;;;;;;;;;5034688;28;20029;-78
2023/01/03 12:35:21;;;;;;;49.58;19.92;;;;;;;;;;5026975;28;20030;-78
2023/01/03 12:37:49;;;;;;;40.00;17.38;;;;;;;;;;5036126;28;20108;-79
2023/01/03 12:40:16;;;;;;;46.42;18.35;;;;;;;;;;5035947;28;20112;-79
2023/01/03 12:43:02;;;;;;;43.78;18.63;;;;;;;;;;5038562;28;20021;-78
2023/01/03 12:45:32;;;;;;;44.47;17.85;;;;;;;;;;5033525;28;20022;-78
2023/01/03 12:47:58;;;;;;;;;;;;;;;;;;5038189;28;20392;-77
2023/01/03 12:50:28;;;;;;;42.65;18.60;;;;;;;;;;5018167;28;20383;-78
2023/01/03 12:53:01;;;;;;;43.25;17.40;;;;;;;;;;5005482;28;20053;-78
2023/01/03 12:55:43;;;;;;;40.65;18.42;;;;;;;;;;5021565;28;20084;-78
2023/01/03 12:58:12;;;;;;;43.65;18.27;;;;;;;;;;5035289;28;20029;-78
2023/01/03 13:00:51;;;;;;;44.75;18.73;;;;;;;;;;5023259;28;20057;-78
2023/01/03 13:03:23;;;;;;;39.70;17.77;;;;;;;;;;5020619;28;20056;-78
2023/01/03 13:06:13;;;;;;;44.97;17.50;;;;;;;;;;5035374;28;20480;-78
2023/01/03 13:08:41;;;;;;;39.95;18.60;;;;;;;;;;5029211;28;20038;-78
2023/01/03 13:11:13;;;;;;;36.03;16.80;;;;;;;;;;5022303;28;20033;-79
2023/01/03 13:13:47;;;;;;;36.40;17.25;;;;;;;;;;5039179;28;20101;-79
2023/01/03 13:16:32;;;;;;;43.65;18.42;;;;;;;;;;5042610;28;20041;-78
2023/01/03 13:19:18;;;;;;;40.03;17.13;;;;;;;;;;5040257;28;20026;-78
2023/01/03 13:21:50;;;;;;;45.28;17.90;;;;;;;;;;5039842;28;20025;-78
2023/01/03 13:24:35;;;;;;;47.80;17.85;;;;;;;;;;5038885;28;20034;-78
2023/01/03 13:27:27;;;;;;;47.13;18.70;;;;;;;;;;5025214;28;20033;-79
2023/01/03 13:29:59;;;;;;;44.40;17.13;;;;;;;;;;5032973;28;20044;-79
2023/01/03 13:32:26;;;;;;;42.13;17.00;;;;;;;;;;5039060;28;20076;-79
2023/01/03 13:34:58;;;;;;;45.85;19.45;;;;;;;;;;5041089;28;20071;-78
2023/01/03 13:37:43;;;;;;;49.28;17.90;;;;;;;;;;5039792;28;20484;-79
2023/01/03 13:40:29;;;;;;;41.58;16.77;;;;;;;;;;5038401;28;20032;-79
2023/01/03 13:43:07;;;;;;;46.80;17.35;;;;;;;;;;5037969;28;20029;-78
2023/01/03 13:45:33;;;;;;;46.58;18.25;;;;;;;;;;5040662;28;20036;-79
2023/01/03 13:48:18;;;;;;;44.60;18.73;;;;;;;;;;5040888;28;20022;-78
2023/01/03 13:51:03;;;;;;;44.30;17.35;;;;;;;;;;5038602;28;20476;-79
2023/01/03 13:53:35;;;;;;;36.90;17.23;;;;;;;;;;5024426;28;20033;-78
2023/01/03 13:56:16;;;;;;;43.58;19.00;;;;;;;;;;5041093;28;20028;-78
2023/01/03 13:58:44;;;;;;;38.30;16.85;;;;;;;;;;5038461;28;20084;-79
2023/01/03 14:01:23;;;;;;;38.47;17.02;;;;;;;;;;5034210;28;20052;-78
2023/01/03 14:04:04;;;;;;;35.33;16.33;;;;;;;;;;5018770;28;20041;-78
2023/01/03 14:06:47;;;;;;;32.58;15.90;;;;;;;;;;5020138;28;20018;-78
2023/01/03 14:09:25;;;;;;;37.00;15.93;;;;;;;;;;5038800;28;20033;-79
2023/01/03 14:11:59;;;;;;;31.25;15.13;;;;;;;;;;5023441;28;20038;-78
2023/01/03 14:14:27;;;;;;;33.58;15.48;;;;;;;;;;5031564;28;20039;-79
2023/01/03 14:16:57;;;;;;;31.08;14.88;;;;;;;;;;5023556;28;20030;-78
2023/01/03 14:19:23;;;;;;;36.97;15.45;;;;;;;;;;5038276;28;20379;-78
2023/01/03 14:21:58;;;;;;;33.75;15.02;;;;;;;;;;5043494;28;20033;-79
2023/01/03 14:24:29;;;;;;;28.90;14.52;;;;;;;;;;5041395;28;20029;-78
2023/01/03 14:27:03;;;;;;;34.45;14.30;;;;;;;;;;5041472;28;20498;-78
2023/01/03 14:29:29;;;;;;;30.50;14.55;;;;;;;;;;5026007;28;20041;-79
2023/01/03 14:31:58;;;;;;;35.83;14.23;;;;;;;;;;5033137;28;20041;-79
2023/01/03 14:34:28;;;;;;;27.50;13.07;;;;;;;;;;5036848;28;20388;-78
2023/01/03 14:36:59;;;;;;;27.23;13.00;;;;;;;;;;5026001;28;20025;-79
2023/01/03 14:39:31;;;;;;;28.30;12.77;;;;;;;;;;5014647;28;20036;-79
2023/01/03 14:41:58;;;;;;;26.65;12.85;;;;;;;;;;5013870;28;20040;-78
2023/01/03 14:44:24;;;;;;;26.70;12.40;;;;;;;;;;5030800;28;20048;-79
2023/01/03 14:46:52;;;;;;;28.38;12.90;;;;;;;;;;5018725;28;20031;-79
2023/01/03 14:49:21;;;;;;;26.33;12.55;;;;;;;;;;5036331;28;21027;-78
2023/01/03 14:51:47;;;;;;;27.83;11.77;;;;;;;;;;5039586;28;20022;-79
2023/01/03 14:54:19;;;;;;;22.58;11.75;;;;;;;;;;5014234;28;20037;-79
2023/01/03 14:56:45;;;;;;;20.90;11.07;;;;;;;;;;5026910;28;20495;-79
2023/01/03 14:59:19;;;;;;;23.23;11.60;;;;;;;;;;5028455;28;20021;-78
2023/01/03 15:01:47;;;;;;;25.52;12.63;;;;;;;;;;5035465;28;20057;-79
2023/01/03 15:04:14;;;;;;;26.92;12.05;;;;;;;;;;5030028;28;20052;-79
2023/01/03 15:07:03;;;;;;;19.05;11.00;;;;;;;;;;5030062;28;20433;-79
2023/01/03 15:09:32;;;;;;;23.30;11.30;;;;;;;;;;5035809;28;20057;-80
2023/01/03 15:12:00;;;;;;;23.63;12.40;;;;;;;;;;5036561;28;20037;-80
2023/01/03 15:14:28;;;;;;;23.88;11.27;;;;;;;;;;5037787;28;20026;-80
2023/01/03 15:17:09;;;;;;;23.15;12.15;;;;;;;;;;5037623;28;20030;-79
2023/01/03 15:19:37;;;;;;;19.73;11.02;;;;;;;;;;5033819;28;20049;-79
2023/01/03 15:22:06;;;;;;;19.85;10.27;;;;;;;;;;5028535;28;20400;-79
2023/01/03 15:24:32;;;;;;;23.20;10.85;;;;;;;;;;5014627;28;20124;-80
2023/01/03 15:26:58;;;;;;;19.88;10.93;;;;;;;;;;5040161;28;20021;-79
2023/01/03 15:29:28;;;;;;;17.35;10.82;;;;;;;;;;5008230;28;20036;-80
2023/01/03 15:31:54;;;;;;;16.42;10.55;;;;;;;;;;5032242;28;20032;-80
2023/01/03 15:34:20;;;;;;;22.00;12.13;;;;;;;;;;5032240;28;20028;-80
2023/01/03 15:36:48;;;;;;;20.67;10.85;;;;;;;;;;5027749;28;20029;-80
2023/01/03 15:39:19;;;;;;;20.20;11.20;;;;;;;;;;5029805;28;20025;-80
2023/01/03 15:44:31;;;;;;;20.88;11.35;;;;;;;;;;5034275;28;20458;-80
2023/01/03 15:47:06;;;;;;;18.70;11.30;;;;;;;;;;5028156;28;20104;-79
2023/01/03 15:49:37;;;;;;;19.52;11.18;;;;;;;;;;5037798;28;20460;-79
2023/01/03 15:52:03;;;;;;;21.17;10.20;;;;;;;;;;5034664;28;20040;-80
2023/01/03 15:54:29;;;;;;;17.95;10.63;;;;;;;;;;5024905;28;20415;-79